^^
Saratoga-Weather Station Historical Data
Daily Summary for September 1, 2021 Units:  English    Metric   Both
Daily Weekly Monthly Yearly Custom
  High: Low: Average:
Temperature: 37.8 °F 35.1 °F 36.1 °F
Dew Point: 34.7 °F 33.1 °F 34 °F
Humidity: 95% 86% 92%
Wind Speed: 8.1mph 0mph 1.9mph
Wind Gust: 8mph - -
Wind- - West
Pressure: 29.9 in 29.7 in -
Precipitation: 0.01 in    
Historical Graphs
 
 
Tabular Data for September 1, 2021
Time Temperature Dew Point Pressure Wind Wind Speed Wind Gust Humidity Rainfall Rate (Hourly) solar
00:02 35.8 °F 34.2 °F 29.7 in WNW 6.9 mph 8 mph 94% 0 in 0 W/m2
00:07 35.8 °F 34.2 °F 29.7 in WNW 2.9 mph 6 mph 94% 0 in 0 W/m2
00:12 35.8 °F 34.2 °F 29.7 in NW 2.9 mph 6 mph 94% 0 in 0 W/m2
00:17 35.8 °F 34.2 °F 29.7 in WNW 2 mph 4 mph 94% 0.01 in 0 W/m2
00:22 35.8 °F 34.2 °F 29.7 in WNW 2.9 mph 3 mph 94% 0.01 in 0 W/m2
00:27 35.6 °F 34 °F 29.7 in WNW 2.9 mph 8 mph 94% 0.01 in 0 W/m2
00:32 35.8 °F 34.5 °F 29.7 in West 2.9 mph 5 mph 95% 0.01 in 0 W/m2
00:37 35.8 °F 34.5 °F 29.7 in West 6 mph 6 mph 95% 0.01 in 0 W/m2
00:42 35.6 °F 34 °F 29.7 in NW 6.9 mph 7 mph 94% 0.01 in 0 W/m2
00:47 35.6 °F 34 °F 29.7 in WNW 2.9 mph 5 mph 94% 0.01 in 0 W/m2
00:52 35.6 °F 34 °F 29.7 in NW 4.9 mph 7 mph 94% 0.01 in 0 W/m2
00:57 35.6 °F 34 °F 29.7 in NW 2 mph 4 mph 94% 0.01 in 0 W/m2
01:02 35.6 °F 34 °F 29.7 in West 2 mph 3 mph 94% 0.01 in 0 W/m2
01:07 35.8 °F 34.2 °F 29.7 in SW 0.9 mph 3 mph 94% 0.01 in 0 W/m2
01:12 35.8 °F 34.2 °F 29.7 in West 2.9 mph 4 mph 94% 0.01 in 0 W/m2
01:17 35.8 °F 34.2 °F 29.7 in WNW 2 mph 3 mph 94% 0 in 0 W/m2
01:22 36 °F 34.3 °F 29.7 in WNW 2 mph 5 mph 94% 0 in 0 W/m2
01:27 36 °F 34.3 °F 29.7 in West 2 mph 3 mph 94% 0 in 0 W/m2
01:32 36 °F 34.3 °F 29.7 in WSW 4 mph 4 mph 94% 0 in 0 W/m2
01:37 36 °F 34.3 °F 29.7 in West 0.9 mph 5 mph 94% 0 in 0 W/m2
01:42 36.1 °F 34.5 °F 29.7 in West 4 mph 5 mph 94% 0 in 0 W/m2
01:47 36.1 °F 34.5 °F 29.7 in WSW 0.9 mph 2 mph 94% 0 in 0 W/m2
01:52 36.1 °F 34.5 °F 29.7 in WSW 2 mph 6 mph 94% 0 in 0 W/m2
01:57 36.1 °F 34.5 °F 29.7 in West 4 mph 6 mph 94% 0 in 0 W/m2
02:02 36.1 °F 34.5 °F 29.7 in West 0.9 mph 6 mph 94% 0 in 0 W/m2
02:07 36.1 °F 34.5 °F 29.7 in West 2.9 mph 7 mph 94% 0 in 0 W/m2
02:12 36.1 °F 34.5 °F 29.7 in WSW 4 mph 4 mph 94% 0 in 0 W/m2
02:17 36.1 °F 34.5 °F 29.7 in WNW 2.9 mph 7 mph 94% 0 in 0 W/m2
02:22 36.1 °F 34.5 °F 29.7 in SSW 8.1 mph 8 mph 94% 0 in 0 W/m2
02:27 36.1 °F 34.5 °F 29.7 in West 2.9 mph 7 mph 94% 0 in 0 W/m2
02:32 36 °F 34.3 °F 29.7 in NW 2.9 mph 6 mph 94% 0 in 0 W/m2
02:37 36 °F 34.3 °F 29.7 in West 2.9 mph 7 mph 94% 0 in 0 W/m2
02:42 36 °F 34.3 °F 29.7 in WNW 2 mph 7 mph 94% 0 in 0 W/m2
02:47 36 °F 34.3 °F 29.7 in WNW 6.9 mph 7 mph 94% 0 in 0 W/m2
02:52 36 °F 34.3 °F 29.7 in West 6 mph 8 mph 94% 0 in 0 W/m2
02:57 36 °F 34.3 °F 29.7 in WNW 2.9 mph 8 mph 94% 0 in 0 W/m2
03:02 36 °F 34.3 °F 29.7 in West 2.9 mph 7 mph 94% 0 in 0 W/m2
03:07 36 °F 34.3 °F 29.7 in West 4 mph 8 mph 94% 0 in 0 W/m2
03:12 36 °F 34.3 °F 29.7 in West 0.9 mph 4 mph 94% 0 in 0 W/m2
03:17 36 °F 34.2 °F 29.7 in West 2.9 mph 3 mph 93% 0 in 0 W/m2
03:22 36 °F 34.3 °F 29.7 in WNW 2 mph 5 mph 94% 0 in 0 W/m2
03:27 36 °F 34.3 °F 29.7 in West 2 mph 3 mph 94% 0 in 0 W/m2
03:32 36 °F 34.3 °F 29.7 in West 2 mph 7 mph 94% 0 in 0 W/m2
03:37 36 °F 34.2 °F 29.7 in West 6 mph 6 mph 93% 0 in 0 W/m2
03:42 36 °F 34.2 °F 29.7 in West 0.9 mph 3 mph 93% 0 in 0 W/m2
03:47 36 °F 34.2 °F 29.7 in West 2.9 mph 7 mph 93% 0 in 0 W/m2
03:52 36 °F 34.2 °F 29.7 in WSW 2.9 mph 7 mph 93% 0 in 0 W/m2
03:57 35.8 °F 34 °F 29.7 in West 2.9 mph 7 mph 93% 0 in 0 W/m2
04:03 36 °F 34.2 °F 29.7 in WNW 2.9 mph 7 mph 93% 0 in 0 W/m2
04:08 36 °F 34.2 °F 29.7 in WNW 2.9 mph 7 mph 93% 0 in 0 W/m2
04:13 35.8 °F 34 °F 29.7 in West 2.9 mph 6 mph 93% 0 in 0 W/m2
04:18 35.8 °F 34 °F 29.7 in NW 2.9 mph 4 mph 93% 0 in 0 W/m2
04:23 35.8 °F 34 °F 29.7 in NW 6 mph 6 mph 93% 0 in 0 W/m2
04:28 35.8 °F 34 °F 29.7 in WNW 4 mph 6 mph 93% 0 in 0 W/m2
04:33 35.8 °F 34 °F 29.7 in West 2.9 mph 4 mph 93% 0 in 0 W/m2
04:38 35.8 °F 34 °F 29.7 in WSW 0.9 mph 5 mph 93% 0 in 0 W/m2
04:43 35.6 °F 33.8 °F 29.7 in WSW 4 mph 4 mph 93% 0 in 0 W/m2
04:48 35.6 °F 33.8 °F 29.7 in WSW 2.9 mph 7 mph 93% 0 in 0 W/m2
04:53 35.6 °F 33.8 °F 29.7 in West 2 mph 6 mph 93% 0 in 0 W/m2
04:58 35.6 °F 33.8 °F 29.7 in West 2 mph 3 mph 93% 0 in 0 W/m2
05:03 35.6 °F 33.8 °F 29.7 in WSW 2 mph 3 mph 93% 0 in 0 W/m2
05:08 35.4 °F 33.6 °F 29.7 in West 2.9 mph 6 mph 93% 0 in 0 W/m2
05:13 35.4 °F 33.6 °F 29.7 in West 4 mph 6 mph 93% 0 in 0 W/m2
05:18 35.4 °F 33.6 °F 29.7 in WNW 2.9 mph 4 mph 93% 0 in 0 W/m2
05:23 35.4 °F 33.6 °F 29.7 in WNW 4.9 mph 5 mph 93% 0 in 0 W/m2
05:28 35.4 °F 33.6 °F 29.7 in WSW 2.9 mph 6 mph 93% 0 in 0 W/m2
05:33 35.4 °F 33.6 °F 29.7 in West 2.9 mph 4 mph 93% 0 in 0 W/m2
05:38 35.6 °F 33.4 °F 29.7 in WSW 2 mph 4 mph 92% 0 in 0 W/m2
05:43 35.6 °F 33.4 °F 29.7 in WSW 2.9 mph 8 mph 92% 0 in 0 W/m2
05:48 35.6 °F 33.4 °F 29.7 in WNW 4 mph 7 mph 92% 0 in 0 W/m2
05:53 35.6 °F 33.4 °F 29.7 in WSW 6 mph 7 mph 92% 0 in 0 W/m2
05:58 35.6 °F 33.4 °F 29.7 in West 4 mph 6 mph 92% 0 in 0 W/m2
06:03 35.6 °F 33.4 °F 29.7 in West 6 mph 8 mph 92% 0 in 0 W/m2
06:08 35.8 °F 33.6 °F 29.7 in West 4 mph 7 mph 92% 0 in 0 W/m2
06:13 35.8 °F 33.6 °F 29.7 in West 2 mph 8 mph 92% 0 in 0 W/m2
06:18 35.6 °F 33.4 °F 29.7 in West 2 mph 4 mph 92% 0 in 0 W/m2
06:23 35.6 °F 33.4 °F 29.7 in West 4 mph 5 mph 92% 0 in 0 W/m2
06:28 35.6 °F 33.4 °F 29.7 in West 2 mph 4 mph 92% 0 in 0 W/m2
06:33 35.6 °F 33.4 °F 29.7 in WSW 0.9 mph 3 mph 92% 0 in 0 W/m2
06:38 35.6 °F 33.4 °F 29.7 in West 2 mph 2 mph 92% 0 in 0 W/m2
06:43 35.4 °F 33.3 °F 29.7 in West 2 mph 4 mph 92% 0 in 0 W/m2
06:48 35.4 °F 33.3 °F 29.7 in West 2.9 mph 4 mph 92% 0 in 0 W/m2
06:53 35.4 °F 33.3 °F 29.7 in WSW 2 mph 4 mph 92% 0 in 0 W/m2
06:58 35.4 °F 33.3 °F 29.7 in West 4 mph 4 mph 92% 0 in 0 W/m2
07:03 35.4 °F 33.3 °F 29.7 in SW 2.9 mph 4 mph 92% 0 in 0 W/m2
07:08 35.4 °F 33.3 °F 29.7 in West 2 mph 5 mph 92% 0 in 0 W/m2
07:13 35.4 °F 33.3 °F 29.7 in West 2 mph 3 mph 92% 0 in 0 W/m2
07:18 35.4 °F 33.6 °F 29.7 in West 2 mph 5 mph 93% 0 in 0 W/m2
07:23 35.2 °F 33.1 °F 29.7 in West 0.9 mph 2 mph 92% 0 in 0 W/m2
07:28 35.2 °F 33.4 °F 29.7 in WNW 2.9 mph 4 mph 93% 0 in 0 W/m2
07:33 35.2 °F 33.4 °F 29.7 in West 2.9 mph 4 mph 93% 0 in 0 W/m2
07:38 35.2 °F 33.4 °F 29.7 in WNW 4 mph 7 mph 93% 0 in 0 W/m2
07:43 35.2 °F 33.4 °F 29.7 in West 6 mph 6 mph 93% 0 in 0 W/m2
07:48 35.2 °F 33.4 °F 29.7 in West 2 mph 7 mph 93% 0 in 0 W/m2
07:53 35.2 °F 33.4 °F 29.7 in WNW 2 mph 4 mph 93% 0 in 0 W/m2
07:58 35.2 °F 33.4 °F 29.7 in WNW 0.9 mph 6 mph 93% 0 in 0 W/m2
08:03 35.2 °F 33.4 °F 29.7 in West 2.9 mph 4 mph 93% 0 in 0 W/m2
08:08 35.2 °F 33.4 °F 29.7 in West 2 mph 6 mph 93% 0 in 0 W/m2
08:13 35.1 °F 33.3 °F 29.8 in WNW 2.9 mph 4 mph 93% 0 in 0 W/m2
08:18 35.1 °F 33.3 °F 29.8 in West 2.9 mph 6 mph 93% 0 in 0 W/m2
08:23 35.2 °F 33.4 °F 29.8 in WNW 0.9 mph 3 mph 93% 0 in 0 W/m2
08:28 35.1 °F 33.3 °F 29.8 in West 2.9 mph 4 mph 93% 0 in 0 W/m2
08:33 35.1 °F 33.3 °F 29.8 in West 2 mph 3 mph 93% 0 in 0 W/m2
08:38 35.1 °F 33.3 °F 29.8 in WNW 0.9 mph 4 mph 93% 0 in 0 W/m2
08:43 35.1 °F 33.3 °F 29.8 in WSW 2.9 mph 6 mph 93% 0 in 0 W/m2
08:48 35.1 °F 33.3 °F 29.8 in WSW 2.9 mph 4 mph 93% 0 in 5 W/m2
08:53 35.1 °F 33.3 °F 29.8 in WSW 4.9 mph 7 mph 93% 0 in 5 W/m2
08:58 35.2 °F 33.4 °F 29.8 in WSW 2.9 mph 4 mph 93% 0 in 5 W/m2
09:03 35.2 °F 33.4 °F 29.8 in West 2.9 mph 7 mph 93% 0 in 7 W/m2
09:08 35.2 °F 33.4 °F 29.8 in WSW 2 mph 4 mph 93% 0 in 9 W/m2
09:13 35.2 °F 33.4 °F 29.8 in West 2 mph 4 mph 93% 0 in 11 W/m2
09:18 35.2 °F 33.4 °F 29.8 in West 2 mph 6 mph 93% 0 in 12 W/m2
09:23 35.2 °F 33.4 °F 29.8 in West 2.9 mph 5 mph 93% 0 in 16 W/m2
09:28 35.2 °F 33.4 °F 29.8 in WNW 2.9 mph 4 mph 93% 0 in 19 W/m2
09:33 35.2 °F 33.4 °F 29.8 in WSW 2.9 mph 6 mph 93% 0 in 21 W/m2
09:38 35.2 °F 33.4 °F 29.8 in WSW 2.9 mph 7 mph 93% 0 in 21 W/m2
09:43 35.2 °F 33.4 °F 29.8 in West 2 mph 4 mph 93% 0 in 23 W/m2
09:49 35.2 °F 33.4 °F 29.8 in West 2 mph 7 mph 93% 0 in 23 W/m2
09:54 35.2 °F 33.4 °F 29.8 in West 2.9 mph 3 mph 93% 0 in 23 W/m2
09:59 35.4 °F 33.6 °F 29.8 in WSW 2.9 mph 4 mph 93% 0 in 25 W/m2
10:04 35.4 °F 33.6 °F 29.8 in WSW 2 mph 2 mph 93% 0 in 28 W/m2
10:09 35.4 °F 33.6 °F 29.8 in Calm   1 mph 93% 0 in 28 W/m2
10:14 35.6 °F 33.8 °F 29.8 in West 0.9 mph 2 mph 93% 0 in 32 W/m2
10:19 35.6 °F 33.8 °F 29.8 in Calm   2 mph 93% 0 in 35 W/m2
10:24 35.6 °F 33.8 °F 29.8 in West 0.9 mph 2 mph 93% 0 in 37 W/m2
10:29 35.6 °F 33.8 °F 29.8 in West 0.9 mph 1 mph 93% 0 in 39 W/m2
10:34 35.8 °F 34 °F 29.8 in West 2 mph 2 mph 93% 0 in 42 W/m2
10:39 35.8 °F 34 °F 29.8 in West 2 mph 3 mph 93% 0 in 42 W/m2
10:44 35.8 °F 34 °F 29.8 in West 0.9 mph 3 mph 93% 0 in 44 W/m2
10:49 35.8 °F 33.6 °F 29.8 in West 0.9 mph 4 mph 92% 0 in 49 W/m2
10:54 35.8 °F 33.6 °F 29.8 in West 2 mph 5 mph 92% 0 in 60 W/m2
10:59 35.8 °F 33.6 °F 29.8 in West 2.9 mph 4 mph 92% 0 in 67 W/m2
11:04 36 °F 33.8 °F 29.8 in West 2 mph 4 mph 92% 0 in 70 W/m2
11:09 36 °F 33.8 °F 29.8 in WNW 2.9 mph 3 mph 92% 0 in 76 W/m2
11:14 36 °F 33.8 °F 29.8 in West 2 mph 5 mph 92% 0 in 76 W/m2
11:19 36.1 °F 34 °F 29.8 in WNW 0.9 mph 3 mph 92% 0 in 76 W/m2
11:24 36.1 °F 34 °F 29.8 in West 2 mph 3 mph 92% 0 in 67 W/m2
11:29 36.1 °F 34 °F 29.8 in West 2 mph 6 mph 92% 0 in 65 W/m2
11:34 36.1 °F 34 °F 29.8 in West 2.9 mph 5 mph 92% 0 in 70 W/m2
11:39 36.1 °F 34 °F 29.8 in West 2.9 mph 4 mph 92% 0 in 72 W/m2
11:44 36.3 °F 34.2 °F 29.8 in West 0.9 mph 5 mph 92% 0 in 72 W/m2
11:49 36.3 °F 34.2 °F 29.8 in West 2.9 mph 3 mph 92% 0 in 74 W/m2
11:54 36.3 °F 34.2 °F 29.8 in NW 0.9 mph 4 mph 92% 0 in 77 W/m2
11:59 36.5 °F 34.3 °F 29.8 in NW 0.9 mph 3 mph 92% 0 in 76 W/m2
12:04 36.7 °F 34.5 °F 29.8 in WNW 0.9 mph 4 mph 92% 0 in 74 W/m2
12:09 36.7 °F 34.5 °F 29.8 in NW 2 mph 4 mph 92% 0 in 72 W/m2
12:14 36.7 °F 34.5 °F 29.8 in WSW 2.9 mph 6 mph 92% 0 in 81 W/m2
12:19 36.7 °F 34.3 °F 29.8 in WNW 2 mph 6 mph 91% 0 in 86 W/m2
12:24 36.7 °F 34.3 °F 29.8 in West 6 mph 6 mph 91% 0 in 86 W/m2
12:29 36.9 °F 34.5 °F 29.8 in West 2 mph 4 mph 91% 0 in 88 W/m2
12:34 36.9 °F 34.5 °F 29.8 in West 4 mph 4 mph 91% 0 in 88 W/m2
12:39 37 °F 34.7 °F 29.8 in NW 0.9 mph 4 mph 91% 0 in 90 W/m2
12:44 37 °F 34.7 °F 29.8 in NW 2 mph 5 mph 91% 0 in 88 W/m2
12:49 37 °F 34.3 °F 29.8 in West 2 mph 5 mph 90% 0 in 98 W/m2
12:54 37 °F 34.3 °F 29.8 in WNW 2.9 mph 4 mph 90% 0 in 113 W/m2
12:59 37 °F 34.3 °F 29.8 in Calm   6 mph 90% 0 in 98 W/m2
13:04 37.2 °F 34.5 °F 29.8 in WNW 2 mph 3 mph 90% 0 in 98 W/m2
13:09 37.2 °F 34.5 °F 29.8 in WNW 2.9 mph 3 mph 90% 0 in 98 W/m2
13:14 37.2 °F 34.5 °F 29.8 in West 4 mph 7 mph 90% 0 in 91 W/m2
13:19 37.2 °F 34.5 °F 29.8 in WNW 2 mph 5 mph 90% 0 in 70 W/m2
13:24 37.2 °F 34.3 °F 29.8 in NNW 0.9 mph 7 mph 89% 0 in 58 W/m2
13:29 37 °F 34.2 °F 29.8 in WNW 0.9 mph 7 mph 89% 0 in 51 W/m2
13:34 37 °F 34.2 °F 29.8 in NW 2 mph 3 mph 89% 0 in 49 W/m2
13:39 37 °F 34.2 °F 29.8 in West 2.9 mph 7 mph 89% 0 in 63 W/m2
13:44 37 °F 34.2 °F 29.8 in West 2.9 mph 6 mph 89% 0 in 77 W/m2
13:49 37 °F 34.2 °F 29.8 in West 2 mph 4 mph 89% 0 in 88 W/m2
13:54 37 °F 34.2 °F 29.8 in WNW 2 mph 5 mph 89% 0 in 83 W/m2
13:59 37.2 °F 34.3 °F 29.8 in West 2.9 mph 4 mph 89% 0 in 74 W/m2
14:04 37.2 °F 34.3 °F 29.8 in NW 0.9 mph 3 mph 89% 0 in 56 W/m2
14:09 37.2 °F 34.3 °F 29.8 in NW 2 mph 2 mph 89% 0 in 54 W/m2
14:14 37.4 °F 34.5 °F 29.8 in WSW 2 mph 4 mph 89% 0 in 63 W/m2
14:19 37.4 °F 34.2 °F 29.8 in WNW 0.9 mph 3 mph 88% 0 in 81 W/m2
14:24 37.4 °F 34.2 °F 29.8 in WNW 2.9 mph 6 mph 88% 0 in 84 W/m2
14:29 37.4 °F 34.2 °F 29.8 in West 0.9 mph 4 mph 88% 0 in 91 W/m2
14:34 37.6 °F 34.3 °F 29.8 in WNW 2.9 mph 4 mph 88% 0 in 86 W/m2
14:39 37.6 °F 34.3 °F 29.8 in WNW 2 mph 3 mph 88% 0 in 83 W/m2
14:44 37.6 °F 34.3 °F 29.8 in WNW 2 mph 3 mph 88% 0 in 97 W/m2
14:49 37.6 °F 34.3 °F 29.8 in West 0.9 mph 3 mph 88% 0 in 102 W/m2
14:54 37.6 °F 34.3 °F 29.8 in West 0.9 mph 3 mph 88% 0 in 97 W/m2
14:59 37.6 °F 34.3 °F 29.8 in West 2 mph 2 mph 88% 0 in 88 W/m2
15:04 37.8 °F 34.5 °F 29.8 in Calm   2 mph 88% 0 in 83 W/m2
15:09 37.8 °F 34.5 °F 29.8 in WNW 2 mph 3 mph 88% 0 in 79 W/m2
15:14 37.8 °F 34.2 °F 29.8 in WNW 2.9 mph 5 mph 87% 0 in 69 W/m2
15:19 37.8 °F 34.2 °F 29.8 in WNW 2 mph 4 mph 87% 0 in 63 W/m2
15:24 37.8 °F 34.2 °F 29.8 in NW 2.9 mph 5 mph 87% 0 in 54 W/m2
15:29 37.8 °F 34 °F 29.8 in Calm   4 mph 86% 0 in 51 W/m2
15:34 37.8 °F 34 °F 29.8 in West 2.9 mph 6 mph 86% 0 in 47 W/m2
15:39 37.8 °F 34.2 °F 29.8 in NNW 2.9 mph 3 mph 87% 0 in 40 W/m2
15:44 37.8 °F 34 °F 29.8 in West 2 mph 4 mph 86% 0 in 37 W/m2
15:49 37.8 °F 34 °F 29.8 in NW 2 mph 2 mph 86% 0 in 28 W/m2
15:54 37.8 °F 34 °F 29.8 in West 0.9 mph 3 mph 86% 0 in 30 W/m2
15:59 37.8 °F 34.2 °F 29.8 in West 2.9 mph 4 mph 87% 0 in 32 W/m2
16:04 37.6 °F 34 °F 29.8 in West 2.9 mph 3 mph 87% 0 in 28 W/m2
16:09 37.6 °F 34 °F 29.8 in West 2 mph 2 mph 87% 0 in 28 W/m2
16:14 37.4 °F 33.8 °F 29.8 in NW 2 mph 4 mph 87% 0 in 25 W/m2
16:19 37.2 °F 33.8 °F 29.8 in WSW 2 mph 3 mph 87% 0 in 19 W/m2
16:24 37.2 °F 33.8 °F 29.8 in NW 0.9 mph 2 mph 87% 0 in 16 W/m2
16:29 37.2 °F 33.8 °F 29.8 in NW 2 mph 2 mph 87% 0 in 12 W/m2
16:34 37 °F 33.6 °F 29.8 in NW 0.9 mph 2 mph 87% 0 in 11 W/m2
16:39 37 °F 33.6 °F 29.8 in Calm   1 mph 87% 0 in 9 W/m2
16:44 37 °F 33.6 °F 29.8 in Calm   1 mph 87% 0 in 0 W/m2
16:49 36.9 °F 33.6 °F 29.8 in Calm   1 mph 88% 0 in 0 W/m2
16:54 36.9 °F 34 °F 29.8 in Calm     89% 0 in 0 W/m2
16:59 36.9 °F 34 °F 29.8 in Calm   1 mph 89% 0 in 0 W/m2
17:04 36.9 °F 34.2 °F 29.8 in Calm     90% 0 in 0 W/m2
17:10 36.7 °F 34 °F 29.8 in Calm     90% 0 in 0 W/m2
17:15 36.7 °F 34.3 °F 29.8 in NW 0.9 mph 1 mph 91% 0 in 0 W/m2
17:20 36.7 °F 34.3 °F 29.8 in Calm     91% 0 in 0 W/m2
17:25 36.7 °F 34.5 °F 29.8 in Calm     92% 0 in 0 W/m2
17:30 36.5 °F 34.3 °F 29.8 in Calm   1 mph 92% 0 in 0 W/m2
17:35 36.3 °F 34.2 °F 29.8 in Calm   1 mph 92% 0 in 0 W/m2
17:40 36.3 °F 34.2 °F 29.8 in Calm     92% 0 in 0 W/m2
17:45 36.3 °F 34.5 °F 29.8 in Calm     93% 0 in 0 W/m2
17:50 36.1 °F 34.3 °F 29.8 in Calm     93% 0 in 0 W/m2
17:55 36.1 °F 34.3 °F 29.8 in Calm     93% 0 in 0 W/m2
18:00 36.1 °F 34.3 °F 29.8 in Calm     93% 0 in 0 W/m2
18:05 36.1 °F 34.3 °F 29.8 in Calm     93% 0 in 0 W/m2
18:10 36.1 °F 34.3 °F 29.8 in Calm   1 mph 93% 0 in 0 W/m2
18:15 36 °F 34.2 °F 29.8 in Calm     93% 0 in 0 W/m2
18:20 36 °F 34.2 °F 29.8 in Calm   1 mph 93% 0 in 0 W/m2
18:25 36 °F 34.2 °F 29.8 in Calm     93% 0 in 0 W/m2
18:30 35.8 °F 34 °F 29.8 in NW 2 mph 2 mph 93% 0 in 0 W/m2
18:35 35.8 °F 34 °F 29.8 in NW 2 mph 2 mph 93% 0 in 0 W/m2
18:40 35.8 °F 33.6 °F 29.8 in West 0.9 mph 2 mph 92% 0 in 0 W/m2
18:45 35.8 °F 33.6 °F 29.8 in WNW 0.9 mph 3 mph 92% 0 in 0 W/m2
18:50 35.8 °F 33.4 °F 29.8 in West 2 mph 2 mph 91% 0 in 0 W/m2
18:55 36 °F 33.6 °F 29.8 in West 2 mph 4 mph 91% 0 in 0 W/m2
19:00 36 °F 33.6 °F 29.8 in West 0.9 mph 3 mph 91% 0 in 0 W/m2
19:05 36 °F 33.6 °F 29.8 in West 2.9 mph 4 mph 91% 0 in 0 W/m2
19:10 36 °F 33.3 °F 29.8 in West 2 mph 3 mph 90% 0 in 0 W/m2
19:15 36 °F 33.3 °F 29.8 in West 2.9 mph 3 mph 90% 0 in 0 W/m2
19:20 36 °F 33.3 °F 29.8 in West 0.9 mph 3 mph 90% 0 in 0 W/m2
19:25 36 °F 33.6 °F 29.8 in Calm   2 mph 91% 0 in 0 W/m2
19:30 36 °F 33.6 °F 29.8 in Calm   2 mph 91% 0 in 0 W/m2
19:35 36 °F 33.6 °F 29.8 in Calm     91% 0 in 0 W/m2
19:40 36 °F 33.6 °F 29.8 in Calm   1 mph 91% 0 in 0 W/m2
19:45 36 °F 33.6 °F 29.8 in Calm   1 mph 91% 0 in 0 W/m2
19:50 36 °F 33.6 °F 29.8 in Calm     91% 0 in 0 W/m2
19:55 36 °F 33.6 °F 29.8 in Calm     91% 0 in 0 W/m2
20:00 36 °F 33.6 °F 29.8 in Calm   2 mph 91% 0 in 0 W/m2
20:06 36 °F 33.6 °F 29.8 in Calm     91% 0 in 0 W/m2
20:11 36 °F 33.6 °F 29.8 in Calm     91% 0 in 0 W/m2
20:16 36 °F 33.8 °F 29.9 in Calm     92% 0 in 0 W/m2
20:21 35.8 °F 33.6 °F 29.9 in Calm     92% 0 in 0 W/m2
20:26 35.8 °F 33.6 °F 29.9 in Calm     92% 0 in 0 W/m2
20:31 35.8 °F 33.6 °F 29.9 in Calm     92% 0 in 0 W/m2
20:36 35.8 °F 33.6 °F 29.9 in Calm     92% 0 in 0 W/m2
20:41 35.6 °F 33.8 °F 29.9 in Calm     93% 0 in 0 W/m2
20:46 35.6 °F 33.8 °F 29.9 in Calm     93% 0 in 0 W/m2
20:51 35.4 °F 33.6 °F 29.9 in Calm     93% 0 in 0 W/m2
20:56 35.4 °F 33.6 °F 29.9 in Calm     93% 0 in 0 W/m2
21:01 35.4 °F 33.6 °F 29.9 in Calm     93% 0 in 0 W/m2
21:06 35.4 °F 33.6 °F 29.9 in Calm     93% 0 in 0 W/m2
21:11 35.4 °F 33.8 °F 29.9 in Calm     94% 0 in 0 W/m2
21:16 35.4 °F 33.8 °F 29.9 in Calm     94% 0 in 0 W/m2
21:21 35.6 °F 34 °F 29.9 in Calm     94% 0 in 0 W/m2
21:26 35.6 °F 34 °F 29.9 in Calm     94% 0 in 0 W/m2
21:31 35.6 °F 34 °F 29.9 in Calm     94% 0 in 0 W/m2
21:36 35.4 °F 33.8 °F 29.9 in Calm     94% 0 in 0 W/m2
21:41 35.4 °F 33.8 °F 29.9 in Calm     94% 0 in 0 W/m2
21:46 35.4 °F 33.8 °F 29.9 in Calm     94% 0 in 0 W/m2
21:51 35.6 °F 34 °F 29.9 in Calm     94% 0 in 0 W/m2
21:56 35.6 °F 34 °F 29.9 in Calm     94% 0 in 0 W/m2
22:01 35.6 °F 34 °F 29.9 in Calm     94% 0 in 0 W/m2
22:06 35.6 °F 34 °F 29.9 in Calm   1 mph 94% 0 in 0 W/m2
22:11 35.6 °F 34 °F 29.9 in Calm     94% 0 in 0 W/m2
22:16 35.8 °F 34.2 °F 29.9 in Calm     94% 0 in 0 W/m2
22:21 35.8 °F 34.2 °F 29.9 in Calm   2 mph 94% 0 in 0 W/m2
22:26 35.8 °F 34.2 °F 29.9 in Calm   1 mph 94% 0 in 0 W/m2
22:31 35.8 °F 34.2 °F 29.9 in Calm   2 mph 94% 0 in 0 W/m2
22:36 35.8 °F 34.2 °F 29.9 in WNW 2 mph 2 mph 94% 0 in 0 W/m2
22:41 35.8 °F 34.2 °F 29.9 in Calm   2 mph 94% 0 in 0 W/m2
22:46 36 °F 34.3 °F 29.9 in WNW 0.9 mph 1 mph 94% 0 in 0 W/m2
22:51 36 °F 34.3 °F 29.9 in Calm   2 mph 94% 0 in 0 W/m2
22:56 36 °F 34.3 °F 29.9 in Calm     94% 0 in 0 W/m2
23:01 36 °F 34.3 °F 29.9 in Calm     94% 0 in 0 W/m2
23:06 36 °F 34.3 °F 29.9 in Calm     94% 0 in 0 W/m2
23:11 36 °F 34.3 °F 29.9 in Calm     94% 0 in 0 W/m2
23:16 36 °F 34.3 °F 29.9 in Calm     94% 0 in 0 W/m2
23:21 36 °F 34.3 °F 29.9 in Calm   1 mph 94% 0 in 0 W/m2
23:26 36 °F 34.3 °F 29.9 in NNE 0.9 mph 1 mph 94% 0 in 0 W/m2
23:31 36 °F 34.3 °F 29.9 in East 2 mph 2 mph 94% 0 in 0 W/m2
23:36 36 °F 34.3 °F 29.9 in Calm     94% 0 in 0 W/m2
23:41 36 °F 34.2 °F 29.9 in Calm     93% 0 in 0 W/m2
23:46 36 °F 34.2 °F 29.9 in Calm     93% 0 in 0 W/m2
23:51 36 °F 34.2 °F 29.9 in Calm     93% 0 in 0 W/m2
23:56 36 °F 34.2 °F 29.9 in Calm     93% 0 in 0 W/m2
Juneau County Weather
Compliments of Weather Underground - 4 mb